sensor_id;sensor_type;location;lat;lon;timestamp;pressure;altitude;pressure_sealevel;temperature;humidity
12763;BME280;6445;52.490;13.378;2022-09-09T00:02:10;113213.25;;;-146.10;91.77
12763;BME280;6445;52.490;13.378;2022-09-09T00:04:41;113213.25;;;-146.10;91.75
12763;BME280;6445;52.490;13.378;2022-09-09T00:07:17;113213.25;;;-146.10;91.85
12763;BME280;6445;52.490;13.378;2022-09-09T00:09:51;112953.25;;;-146.10;91.64
12763;BME280;6445;52.490;13.378;2022-09-09T00:15:29;112693.28;;;-146.10;91.71
12763;BME280;6445;52.490;13.378;2022-09-09T00:18:10;112953.25;;;-146.10;91.72
12763;BME280;6445;52.490;13.378;2022-09-09T00:20:52;113213.25;;;-146.10;91.94
12763;BME280;6445;52.490;13.378;2022-09-09T00:23:40;113473.25;;;-146.10;91.97
12763;BME280;6445;52.490;13.378;2022-09-09T00:26:21;113473.25;;;-146.10;91.87
12763;BME280;6445;52.490;13.378;2022-09-09T00:28:54;113473.25;;;-146.10;91.97
12763;BME280;6445;52.490;13.378;2022-09-09T00:31:27;113473.25;;;-146.10;91.87
12763;BME280;6445;52.490;13.378;2022-09-09T00:33:53;113733.28;;;-146.10;91.95
12763;BME280;6445;52.490;13.378;2022-09-09T00:36:22;113473.25;;;-146.10;91.95
12763;BME280;6445;52.490;13.378;2022-09-09T00:38:57;113473.25;;;-146.10;92.01
12763;BME280;6445;52.490;13.378;2022-09-09T00:42:03;113473.25;;;-146.10;92.05
12763;BME280;6445;52.490;13.378;2022-09-09T00:44:37;112953.25;;;-146.10;91.81
12763;BME280;6445;52.490;13.378;2022-09-09T00:50:01;113473.25;;;-146.10;92.09
12763;BME280;6445;52.490;13.378;2022-09-09T00:52:41;113733.28;;;-146.10;91.98
12763;BME280;6445;52.490;13.378;2022-09-09T00:55:16;113733.28;;;-146.10;92.21
12763;BME280;6445;52.490;13.378;2022-09-09T00:57:44;113733.28;;;-146.10;92.19
12763;BME280;6445;52.490;13.378;2022-09-09T01:00:40;113733.28;;;-146.10;92.28
12763;BME280;6445;52.490;13.378;2022-09-09T01:05:58;113733.28;;;-146.10;92.22
12763;BME280;6445;52.490;13.378;2022-09-09T01:11:24;113733.28;;;-146.10;92.21
12763;BME280;6445;52.490;13.378;2022-09-09T01:13:58;113993.31;;;-146.10;92.30
12763;BME280;6445;52.490;13.378;2022-09-09T01:16:25;113733.28;;;-146.10;92.40
12763;BME280;6445;52.490;13.378;2022-09-09T01:18:54;113733.28;;;-146.10;92.22
12763;BME280;6445;52.490;13.378;2022-09-09T01:21:31;113733.28;;;-146.10;92.32
12763;BME280;6445;52.490;13.378;2022-09-09T01:26:41;113993.31;;;-146.10;92.46
12763;BME280;6445;52.490;13.378;2022-09-09T01:29:09;113993.31;;;-146.10;92.46
12763;BME280;6445;52.490;13.378;2022-09-09T01:31:41;113993.31;;;-146.10;92.46
12763;BME280;6445;52.490;13.378;2022-09-09T01:34:11;113993.31;;;-146.10;92.42
12763;BME280;6445;52.490;13.378;2022-09-09T01:36:55;113993.31;;;-146.10;92.63
12763;BME280;6445;52.490;13.378;2022-09-09T01:39:22;113993.31;;;-146.10;92.39
12763;BME280;6445;52.490;13.378;2022-09-09T01:41:47;113993.31;;;-146.10;92.50
12763;BME280;6445;52.490;13.378;2022-09-09T01:44:13;113993.31;;;-146.10;92.36
12763;BME280;6445;52.490;13.378;2022-09-09T01:46:38;113733.28;;;-146.10;92.36
12763;BME280;6445;52.490;13.378;2022-09-09T01:49:06;113733.28;;;-146.10;92.13
12763;BME280;6445;52.490;13.378;2022-09-09T01:51:32;113733.28;;;-146.10;92.25
12763;BME280;6445;52.490;13.378;2022-09-09T01:53:58;113473.25;;;-146.10;92.32
12763;BME280;6445;52.490;13.378;2022-09-09T01:56:38;113473.25;;;-146.10;92.30
12763;BME280;6445;52.490;13.378;2022-09-09T01:59:26;113473.25;;;-146.10;92.18
12763;BME280;6445;52.490;13.378;2022-09-09T02:02:07;113733.28;;;-146.10;92.35
12763;BME280;6445;52.490;13.378;2022-09-09T02:04:45;113733.28;;;-146.10;92.19
12763;BME280;6445;52.490;13.378;2022-09-09T02:07:25;113473.25;;;-146.10;92.15
12763;BME280;6445;52.490;13.378;2022-09-09T02:13:11;113213.25;;;-146.10;91.95
12763;BME280;6445;52.490;13.378;2022-09-09T02:18:12;113473.25;;;-146.10;92.34
12763;BME280;6445;52.490;13.378;2022-09-09T02:20:39;113473.25;;;-146.10;92.05
12763;BME280;6445;52.490;13.378;2022-09-09T02:23:06;113213.25;;;-146.10;92.29
12763;BME280;6445;52.490;13.378;2022-09-09T02:25:35;112953.25;;;-146.10;91.84
12763;BME280;6445;52.490;13.378;2022-09-09T02:28:03;112693.28;;;-146.10;91.95
12763;BME280;6445;52.490;13.378;2022-09-09T02:30:32;112433.34;;;-146.10;91.92
12763;BME280;6445;52.490;13.378;2022-09-09T02:33:00;112433.34;;;-146.10;91.93
12763;BME280;6445;52.490;13.378;2022-09-09T02:35:30;112693.28;;;-146.10;91.96
12763;BME280;6445;52.490;13.378;2022-09-09T02:38:01;112693.28;;;-146.10;91.96
12763;BME280;6445;52.490;13.378;2022-09-09T02:40:28;112953.25;;;-146.10;92.09
12763;BME280;6445;52.490;13.378;2022-09-09T02:42:54;112693.28;;;-146.10;91.92
12763;BME280;6445;52.490;13.378;2022-09-09T02:45:25;112953.25;;;-146.10;92.01
12763;BME280;6445;52.490;13.378;2022-09-09T02:48:14;112953.25;;;-146.10;92.14
12763;BME280;6445;52.490;13.378;2022-09-09T02:53:43;112693.28;;;-146.10;91.73
12763;BME280;6445;52.490;13.378;2022-09-09T02:56:20;112953.25;;;-146.10;91.95
12763;BME280;6445;52.490;13.378;2022-09-09T02:58:47;112953.25;;;-146.10;92.08
12763;BME280;6445;52.490;13.378;2022-09-09T03:01:12;112953.25;;;-146.10;91.95
12763;BME280;6445;52.490;13.378;2022-09-09T03:03:37;112693.28;;;-146.10;92.18
12763;BME280;6445;52.490;13.378;2022-09-09T03:06:03;112953.25;;;-146.10;92.28
12763;BME280;6445;52.490;13.378;2022-09-09T03:08:28;113473.25;;;-146.10;92.22
12763;BME280;6445;52.490;13.378;2022-09-09T03:10:54;113473.25;;;-146.10;92.33
12763;BME280;6445;52.490;13.378;2022-09-09T03:13:20;113473.25;;;-146.10;92.26
12763;BME280;6445;52.490;13.378;2022-09-09T03:15:45;113733.28;;;-146.10;92.43
12763;BME280;6445;52.490;13.378;2022-09-09T03:18:10;113473.25;;;-146.10;92.27
12763;BME280;6445;52.490;13.378;2022-09-09T03:20:35;113213.25;;;-146.10;92.23
12763;BME280;6445;52.490;13.378;2022-09-09T03:23:01;112693.28;;;-146.10;91.77
12763;BME280;6445;52.490;13.378;2022-09-09T03:25:27;112433.34;;;-146.10;92.05
12763;BME280;6445;52.490;13.378;2022-09-09T03:27:54;112433.34;;;-146.10;91.98
12763;BME280;6445;52.490;13.378;2022-09-09T03:30:21;112433.34;;;-146.10;92.07
12763;BME280;6445;52.490;13.378;2022-09-09T03:32:47;112693.28;;;-146.10;92.04
12763;BME280;6445;52.490;13.378;2022-09-09T03:35:13;112693.28;;;-146.10;92.03
12763;BME280;6445;52.490;13.378;2022-09-09T03:37:38;112433.34;;;-146.10;91.95
12763;BME280;6445;52.490;13.378;2022-09-09T03:40:04;112433.34;;;-146.10;91.64
12763;BME280;6445;52.490;13.378;2022-09-09T03:42:29;111653.59;;;-146.10;91.38
12763;BME280;6445;52.490;13.378;2022-09-09T03:44:56;110873.97;;;-146.10;91.42
12763;BME280;6445;52.490;13.378;2022-09-09T03:47:22;111133.81;;;-146.10;91.36
12763;BME280;6445;52.490;13.378;2022-09-09T03:49:48;111653.59;;;-146.10;91.63
12763;BME280;6445;52.490;13.378;2022-09-09T03:52:14;111653.59;;;-146.10;91.43
12763;BME280;6445;52.490;13.378;2022-09-09T03:54:39;111133.81;;;-146.10;91.50
12763;BME280;6445;52.490;13.378;2022-09-09T03:57:04;111133.81;;;-146.10;91.32
12763;BME280;6445;52.490;13.378;2022-09-09T03:59:30;110873.97;;;-146.10;91.40
12763;BME280;6445;52.490;13.378;2022-09-09T04:01:55;111393.69;;;-146.10;91.48
12763;BME280;6445;52.490;13.378;2022-09-09T04:04:22;110614.13;;;-146.10;91.16
12763;BME280;6445;52.490;13.378;2022-09-09T04:06:47;110354.31;;;-146.10;90.97
12763;BME280;6445;52.490;13.378;2022-09-09T04:09:13;110094.50;;;-146.10;91.02
12763;BME280;6445;52.490;13.378;2022-09-09T04:11:39;110094.50;;;-146.10;91.06
12763;BME280;6445;52.490;13.378;2022-09-09T04:14:04;109834.72;;;-146.10;91.01
12763;BME280;6445;52.490;13.378;2022-09-09T04:16:31;109834.72;;;-146.10;90.90
12763;BME280;6445;52.490;13.378;2022-09-09T04:18:57;110354.31;;;-146.10;91.10
12763;BME280;6445;52.490;13.378;2022-09-09T04:21:23;110354.31;;;-146.10;90.96
12763;BME280;6445;52.490;13.378;2022-09-09T04:23:48;110614.13;;;-146.10;91.12
12763;BME280;6445;52.490;13.378;2022-09-09T04:26:13;110614.13;;;-146.10;91.00
12763;BME280;6445;52.490;13.378;2022-09-09T04:28:39;110873.97;;;-146.10;91.08
12763;BME280;6445;52.490;13.378;2022-09-09T04:31:10;110873.97;;;-146.10;91.37
12763;BME280;6445;52.490;13.378;2022-09-09T04:33:36;110873.97;;;-146.10;91.18
12763;BME280;6445;52.490;13.378;2022-09-09T04:36:02;110614.13;;;-146.10;90.88
12763;BME280;6445;52.490;13.378;2022-09-09T04:38:27;110354.31;;;-146.10;90.97
12763;BME280;6445;52.490;13.378;2022-09-09T04:40:53;109834.72;;;-146.10;90.71
12763;BME280;6445;52.490;13.378;2022-09-09T04:43:19;110094.50;;;-146.10;90.80
12763;BME280;6445;52.490;13.378;2022-09-09T04:45:47;109834.72;;;-146.10;90.78
12763;BME280;6445;52.490;13.378;2022-09-09T04:48:13;109834.72;;;-146.10;90.86
12763;BME280;6445;52.490;13.378;2022-09-09T04:50:39;110354.31;;;-146.10;90.85
12763;BME280;6445;52.490;13.378;2022-09-09T04:53:06;109574.94;;;-146.10;90.79
12763;BME280;6445;52.490;13.378;2022-09-09T04:55:32;109834.72;;;-146.10;90.80
12763;BME280;6445;52.490;13.378;2022-09-09T04:58:05;110873.97;;;-146.10;91.12
12763;BME280;6445;52.490;13.378;2022-09-09T05:00:32;110873.97;;;-146.10;90.93
12763;BME280;6445;52.490;13.378;2022-09-09T05:03:03;108276.34;;;-146.10;90.08
12763;BME280;6445;52.490;13.378;2022-09-09T05:05:29;106718.56;;;-146.10;89.42
12763;BME280;6445;52.490;13.378;2022-09-09T05:07:54;102308.09;;;-146.10;88.30
12763;BME280;6445;52.490;13.378;2022-09-09T05:10:19;82649.28;;;-146.10;84.92
12763;BME280;6445;52.490;13.378;2022-09-09T05:12:52;54619.47;;;-146.10;79.26
12763;BME280;6445;52.490;13.378;2022-09-09T05:15:18;53298.50;;;-146.10;77.31
12763;BME280;6445;52.490;13.378;2022-09-09T05:17:43;52462.09;;;-146.10;72.25
12763;BME280;6445;52.490;13.378;2022-09-09T05:20:08;52272.03;;;-146.10;68.43
12763;BME280;6445;52.490;13.378;2022-09-09T05:22:34;52250.03;;;-146.10;65.65
12763;BME280;6445;52.490;13.378;2022-09-09T05:24:59;52272.03;;;-146.10;63.31
12763;BME280;6445;52.490;13.378;2022-09-09T05:27:26;52260.03;;;-146.10;60.93
12763;BME280;6445;52.490;13.378;2022-09-09T05:29:51;52246.03;;;-146.10;62.76
12763;BME280;6445;52.490;13.378;2022-09-09T05:32:16;52280.03;;;-146.10;59.17
12763;BME280;6445;52.490;13.378;2022-09-09T05:34:42;52290.06;;;-146.10;57.53
12763;BME280;6445;52.490;13.378;2022-09-09T05:37:07;52300.06;;;-146.10;56.07
12763;BME280;6445;52.490;13.378;2022-09-09T05:39:33;52292.06;;;-146.10;55.19
12763;BME280;6445;52.490;13.378;2022-09-09T05:41:58;52290.06;;;-146.10;56.02
12763;BME280;6445;52.490;13.378;2022-09-09T05:44:24;52356.06;;;-146.10;54.47
12763;BME280;6445;52.490;13.378;2022-09-09T05:46:52;52406.09;;;-146.10;51.25
12763;BME280;6445;52.490;13.378;2022-09-09T05:49:18;52460.09;;;-146.10;47.24
12763;BME280;6445;52.490;13.378;2022-09-09T05:51:43;52414.09;;;-146.10;49.27
12763;BME280;6445;52.490;13.378;2022-09-09T05:54:09;52398.09;;;-146.10;49.08
12763;BME280;6445;52.490;13.378;2022-09-09T05:56:34;52438.09;;;-146.10;47.43
12763;BME280;6445;52.490;13.378;2022-09-09T05:59:00;52398.09;;;-146.10;48.49
12763;BME280;6445;52.490;13.378;2022-09-09T06:01:28;52340.06;;;-146.10;50.47
12763;BME280;6445;52.490;13.378;2022-09-09T06:03:54;52384.09;;;-146.10;49.91
12763;BME280;6445;52.490;13.378;2022-09-09T06:06:22;52368.06;;;-146.10;50.88
12763;BME280;6445;52.490;13.378;2022-09-09T06:08:51;52412.09;;;-146.10;48.81
12763;BME280;6445;52.490;13.378;2022-09-09T06:11:18;52414.09;;;-146.10;48.68
12763;BME280;6445;52.490;13.378;2022-09-09T06:13:44;52360.06;;;-146.10;48.91
12763;BME280;6445;52.490;13.378;2022-09-09T06:16:10;52370.06;;;-146.10;48.50
12763;BME280;6445;52.490;13.378;2022-09-09T06:18:36;52424.09;;;-146.10;46.51
12763;BME280;6445;52.490;13.378;2022-09-09T06:21:04;52590.16;;;-146.10;42.37
12763;BME280;6445;52.490;13.378;2022-09-09T06:23:31;52580.16;;;-146.10;43.49
12763;BME280;6445;52.490;13.378;2022-09-09T06:26:06;52516.13;;;-146.10;44.06
12763;BME280;6445;52.490;13.378;2022-09-09T06:28:33;52632.19;;;-146.10;41.51
12763;BME280;6445;52.490;13.378;2022-09-09T06:31:05;52706.22;;;-146.10;39.62
12763;BME280;6445;52.490;13.378;2022-09-09T06:33:32;52638.19;;;-146.10;41.31
12763;BME280;6445;52.490;13.378;2022-09-09T06:35:59;52528.13;;;-146.10;41.84
12763;BME280;6445;52.490;13.378;2022-09-09T06:38:24;52380.09;;;-146.10;47.17
12763;BME280;6445;52.490;13.378;2022-09-09T06:40:54;52340.06;;;-146.10;50.58
12763;BME280;6445;52.490;13.378;2022-09-09T06:43:24;52248.03;;;-146.10;54.10
12763;BME280;6445;52.490;13.378;2022-09-09T06:46:00;52230.03;;;-146.10;57.51
12763;BME280;6445;52.490;13.378;2022-09-09T06:48:26;52216.03;;;-146.10;58.38
12763;BME280;6445;52.490;13.378;2022-09-09T06:53:30;52260.03;;;-146.10;57.02
12763;BME280;6445;52.490;13.378;2022-09-09T06:55:58;52378.06;;;-146.10;51.54
12763;BME280;6445;52.490;13.378;2022-09-09T06:58:23;52426.09;;;-146.10;47.03
12763;BME280;6445;52.490;13.378;2022-09-09T07:00:49;52478.13;;;-146.10;45.24
12763;BME280;6445;52.490;13.378;2022-09-09T07:03:14;52606.16;;;-146.10;41.10
12763;BME280;6445;52.490;13.378;2022-09-09T07:05:40;52630.16;;;-146.10;40.48
12763;BME280;6445;52.490;13.378;2022-09-09T07:08:05;52802.25;;;-146.10;37.97
12763;BME280;6445;52.490;13.378;2022-09-09T07:10:30;52884.28;;;-146.10;36.13
12763;BME280;6445;52.490;13.378;2022-09-09T07:12:56;52810.25;;;-146.10;36.79
12763;BME280;6445;52.490;13.378;2022-09-09T07:15:21;52770.22;;;-146.10;38.06
12763;BME280;6445;52.490;13.378;2022-09-09T07:17:48;52690.19;;;-146.10;38.46
12763;BME280;6445;52.490;13.378;2022-09-09T07:20:14;52832.25;;;-146.10;36.48
12763;BME280;6445;52.490;13.378;2022-09-09T07:22:40;52832.25;;;-146.10;35.67
12763;BME280;6445;52.490;13.378;2022-09-09T07:25:07;52736.22;;;-146.10;37.74
12763;BME280;6445;52.490;13.378;2022-09-09T07:27:32;52810.25;;;-146.10;36.92
12763;BME280;6445;52.490;13.378;2022-09-09T07:29:57;52852.28;;;-146.10;36.59
12763;BME280;6445;52.490;13.378;2022-09-09T07:32:23;52870.28;;;-146.10;35.19
12763;BME280;6445;52.490;13.378;2022-09-09T07:34:48;53068.38;;;-146.10;33.62
12763;BME280;6445;52.490;13.378;2022-09-09T07:37:15;53060.38;;;-146.10;33.08
12763;BME280;6445;52.490;13.378;2022-09-09T07:39:41;53098.38;;;-146.10;33.09
12763;BME280;6445;52.490;13.378;2022-09-09T07:42:06;52994.34;;;-146.10;33.77
12763;BME280;6445;52.490;13.378;2022-09-09T07:44:32;53072.38;;;-146.10;33.21
12763;BME280;6445;52.490;13.378;2022-09-09T07:47:00;53040.38;;;-146.10;33.07
12763;BME280;6445;52.490;13.378;2022-09-09T07:49:26;53098.38;;;-146.10;32.01
12763;BME280;6445;52.490;13.378;2022-09-09T07:51:51;53090.38;;;-146.10;32.63
12763;BME280;6445;52.490;13.378;2022-09-09T07:54:18;53042.38;;;-146.10;33.82
12763;BME280;6445;52.490;13.378;2022-09-09T07:56:48;53056.38;;;-146.10;32.81
12763;BME280;6445;52.490;13.378;2022-09-09T07:59:14;53064.38;;;-146.10;33.52
12763;BME280;6445;52.490;13.378;2022-09-09T08:01:43;53000.34;;;-146.10;33.56
12763;BME280;6445;52.490;13.378;2022-09-09T08:04:11;53092.38;;;-146.10;32.31
12763;BME280;6445;52.490;13.378;2022-09-09T08:06:43;53334.53;;;-146.10;31.10
12763;BME280;6445;52.490;13.378;2022-09-09T08:09:09;53352.53;;;-146.10;30.96
12763;BME280;6445;52.490;13.378;2022-09-09T08:11:35;53272.50;;;-146.10;31.36
12763;BME280;6445;52.490;13.378;2022-09-09T08:14:01;53052.38;;;-146.10;32.77
12763;BME280;6445;52.490;13.378;2022-09-09T08:16:29;53028.34;;;-146.10;33.42
12763;BME280;6445;52.490;13.378;2022-09-09T08:18:56;52770.22;;;-146.10;36.36
12763;BME280;6445;52.490;13.378;2022-09-09T08:21:26;52772.22;;;-146.10;36.48
12763;BME280;6445;52.490;13.378;2022-09-09T08:23:53;52538.13;;;-146.10;41.10
12763;BME280;6445;52.490;13.378;2022-09-09T08:26:24;52420.09;;;-146.10;45.27
12763;BME280;6445;52.490;13.378;2022-09-09T08:28:51;52394.09;;;-146.10;47.10
12763;BME280;6445;52.490;13.378;2022-09-09T08:31:22;52340.06;;;-146.10;48.45
12763;BME280;6445;52.490;13.378;2022-09-09T08:33:48;52408.09;;;-146.10;47.61
12763;BME280;6445;52.490;13.378;2022-09-09T08:36:16;52378.06;;;-146.10;48.12
12763;BME280;6445;52.490;13.378;2022-09-09T08:38:42;52384.09;;;-146.10;48.20
12763;BME280;6445;52.490;13.378;2022-09-09T08:41:28;52308.06;;;-146.10;49.78
12763;BME280;6445;52.490;13.378;2022-09-09T08:44:03;52356.06;;;-146.10;49.38
12763;BME280;6445;52.490;13.378;2022-09-09T08:46:41;52276.03;;;-146.10;51.10
12763;BME280;6445;52.490;13.378;2022-09-09T08:51:57;52312.06;;;-146.10;51.40
12763;BME280;6445;52.490;13.378;2022-09-09T08:54:23;52288.06;;;-146.10;50.47
12763;BME280;6445;52.490;13.378;2022-09-09T08:56:48;52294.06;;;-146.10;52.23
12763;BME280;6445;52.490;13.378;2022-09-09T08:59:17;52292.06;;;-146.10;52.86
12763;BME280;6445;52.490;13.378;2022-09-09T09:04:32;52332.06;;;-146.10;52.06
12763;BME280;6445;52.490;13.378;2022-09-09T09:07:50;52348.06;;;-146.10;50.73
12763;BME280;6445;52.490;13.378;2022-09-09T09:10:12;52444.09;;;-146.10;47.31
12763;BME280;6445;52.490;13.378;2022-09-09T09:12:43;52512.13;;;-146.10;44.25
12763;BME280;6445;52.490;13.378;2022-09-09T09:15:21;52592.16;;;-146.10;41.96
12763;BME280;6445;52.490;13.378;2022-09-09T09:17:48;52622.16;;;-146.10;40.10
12763;BME280;6445;52.490;13.378;2022-09-09T09:20:15;52594.16;;;-146.10;40.91
12763;BME280;6445;52.490;13.378;2022-09-09T09:22:49;52596.16;;;-146.10;41.24
12763;BME280;6445;52.490;13.378;2022-09-09T09:25:19;52522.13;;;-146.10;42.11
12763;BME280;6445;52.490;13.378;2022-09-09T09:30:18;52760.22;;;-146.10;37.33
12763;BME280;6445;52.490;13.378;2022-09-09T09:32:58;52716.22;;;-146.10;37.50
12763;BME280;6445;52.490;13.378;2022-09-09T09:35:25;52724.22;;;-146.10;38.02
12763;BME280;6445;52.490;13.378;2022-09-09T09:37:50;52810.25;;;-146.10;36.77
12763;BME280;6445;52.490;13.378;2022-09-09T09:40:18;52692.19;;;-146.10;38.05
12763;BME280;6445;52.490;13.378;2022-09-09T09:42:56;52592.16;;;-146.10;39.66
12763;BME280;6445;52.490;13.378;2022-09-09T09:45:42;52642.19;;;-146.10;39.11
12763;BME280;6445;52.490;13.378;2022-09-09T09:48:11;52670.19;;;-146.10;39.78
12763;BME280;6445;52.490;13.378;2022-09-09T09:50:49;52682.19;;;-146.10;38.76
12763;BME280;6445;52.490;13.378;2022-09-09T09:53:25;52710.22;;;-146.10;38.31
12763;BME280;6445;52.490;13.378;2022-09-09T09:55:57;52680.19;;;-146.10;38.36
12763;BME280;6445;52.490;13.378;2022-09-09T09:58:23;52712.22;;;-146.10;38.26
12763;BME280;6445;52.490;13.378;2022-09-09T10:00:51;52670.19;;;-146.10;38.92
12763;BME280;6445;52.490;13.378;2022-09-09T10:03:31;52612.16;;;-146.10;39.64
12763;BME280;6445;52.490;13.378;2022-09-09T10:05:57;52556.16;;;-146.10;40.67
12763;BME280;6445;52.490;13.378;2022-09-09T10:08:26;52652.19;;;-146.10;39.25
12763;BME280;6445;52.490;13.378;2022-09-09T10:11:02;52610.16;;;-146.10;39.92
12763;BME280;6445;52.490;13.378;2022-09-09T10:16:33;52564.16;;;-146.10;40.40
12763;BME280;6445;52.490;13.378;2022-09-09T10:19:06;52554.16;;;-146.10;41.36
12763;BME280;6445;52.490;13.378;2022-09-09T10:21:49;52582.16;;;-146.10;40.31
12763;BME280;6445;52.490;13.378;2022-09-09T10:24:56;52590.16;;;-146.10;39.68
12763;BME280;6445;52.490;13.378;2022-09-09T10:27:44;52624.16;;;-146.10;39.74
12763;BME280;6445;52.490;13.378;2022-09-09T10:30:50;52526.13;;;-146.10;40.99
12763;BME280;6445;52.490;13.378;2022-09-09T10:33:28;52552.16;;;-146.10;41.30
12763;BME280;6445;52.490;13.378;2022-09-09T10:36:06;52574.16;;;-146.10;39.97
12763;BME280;6445;52.490;13.378;2022-09-09T10:38:45;52536.13;;;-146.10;41.28
12763;BME280;6445;52.490;13.378;2022-09-09T10:41:23;52594.16;;;-146.10;39.21
12763;BME280;6445;52.490;13.378;2022-09-09T10:44:29;52624.16;;;-146.10;38.84
12763;BME280;6445;52.490;13.378;2022-09-09T10:50:15;52538.13;;;-146.10;40.04
12763;BME280;6445;52.490;13.378;2022-09-09T10:53:02;52536.13;;;-146.10;41.13
12763;BME280;6445;52.490;13.378;2022-09-09T10:55:56;52568.16;;;-146.10;39.81
12763;BME280;6445;52.490;13.378;2022-09-09T10:58:39;52588.16;;;-146.10;40.50
12763;BME280;6445;52.490;13.378;2022-09-09T11:01:13;52536.13;;;-146.10;41.52
12763;BME280;6445;52.490;13.378;2022-09-09T11:03:41;52574.16;;;-146.10;40.31
12763;BME280;6445;52.490;13.378;2022-09-09T11:06:17;52554.16;;;-146.10;40.50
12763;BME280;6445;52.490;13.378;2022-09-09T11:08:45;52480.13;;;-146.10;41.78
12763;BME280;6445;52.490;13.378;2022-09-09T11:11:15;52512.13;;;-146.10;42.56
12763;BME280;6445;52.490;13.378;2022-09-09T11:16:43;52530.13;;;-146.10;41.56
12763;BME280;6445;52.490;13.378;2022-09-09T11:19:21;52546.13;;;-146.10;41.77
12763;BME280;6445;52.490;13.378;2022-09-09T11:21:49;52582.16;;;-146.10;40.85
12763;BME280;6445;52.490;13.378;2022-09-09T11:24:35;52586.16;;;-146.10;40.42
12763;BME280;6445;52.490;13.378;2022-09-09T11:32:50;52572.16;;;-146.10;41.20
12763;BME280;6445;52.490;13.378;2022-09-09T11:38:16;52606.16;;;-146.10;39.33
12763;BME280;6445;52.490;13.378;2022-09-09T11:40:44;52614.16;;;-146.10;38.94
12763;BME280;6445;52.490;13.378;2022-09-09T11:45:40;52582.16;;;-146.10;39.52
12763;BME280;6445;52.490;13.378;2022-09-09T11:48:23;52578.16;;;-146.10;39.59
12763;BME280;6445;52.490;13.378;2022-09-09T11:50:58;52594.16;;;-146.10;39.76
12763;BME280;6445;52.490;13.378;2022-09-09T11:53:23;52572.16;;;-146.10;39.52
12763;BME280;6445;52.490;13.378;2022-09-09T11:56:12;52504.13;;;-146.10;39.74
12763;BME280;6445;52.490;13.378;2022-09-09T11:58:41;52506.13;;;-146.10;40.52
12763;BME280;6445;52.490;13.378;2022-09-09T12:01:16;52508.13;;;-146.10;39.40
12763;BME280;6445;52.490;13.378;2022-09-09T12:03:52;52510.13;;;-146.10;39.93
12763;BME280;6445;52.490;13.378;2022-09-09T12:09:05;52616.16;;;-146.10;38.63
12763;BME280;6445;52.490;13.378;2022-09-09T12:11:31;52634.19;;;-146.10;38.06
12763;BME280;6445;52.490;13.378;2022-09-09T12:13:59;52574.16;;;-146.10;39.58
12763;BME280;6445;52.490;13.378;2022-09-09T12:16:35;52588.16;;;-146.10;39.18
12763;BME280;6445;52.490;13.378;2022-09-09T12:19:14;52524.13;;;-146.10;39.80
12763;BME280;6445;52.490;13.378;2022-09-09T12:21:48;52490.13;;;-146.10;39.16
12763;BME280;6445;52.490;13.378;2022-09-09T12:24:30;52524.13;;;-146.10;38.81
12763;BME280;6445;52.490;13.378;2022-09-09T12:27:26;52530.13;;;-146.10;39.61
12763;BME280;6445;52.490;13.378;2022-09-09T12:30:02;52514.13;;;-146.10;39.35
12763;BME280;6445;52.490;13.378;2022-09-09T12:32:28;52468.09;;;-146.10;39.99
12763;BME280;6445;52.490;13.378;2022-09-09T12:34:59;52468.09;;;-146.10;39.77
12763;BME280;6445;52.490;13.378;2022-09-09T12:39:56;52442.09;;;-146.10;40.82
12763;BME280;6445;52.490;13.378;2022-09-09T12:42:23;52470.13;;;-146.10;40.97
12763;BME280;6445;52.490;13.378;2022-09-09T12:44:54;52476.13;;;-146.10;40.80
12763;BME280;6445;52.490;13.378;2022-09-09T12:47:24;52414.09;;;-146.10;41.21
12763;BME280;6445;52.490;13.378;2022-09-09T12:49:51;52424.09;;;-146.10;42.05
12763;BME280;6445;52.490;13.378;2022-09-09T12:52:28;52454.09;;;-146.10;41.50
12763;BME280;6445;52.490;13.378;2022-09-09T12:54:55;52420.09;;;-146.10;41.74
12763;BME280;6445;52.490;13.378;2022-09-09T12:57:23;52478.13;;;-146.10;41.03
12763;BME280;6445;52.490;13.378;2022-09-09T12:59:52;52452.09;;;-146.10;40.95
12763;BME280;6445;52.490;13.378;2022-09-09T13:02:28;52428.09;;;-146.10;41.50
12763;BME280;6445;52.490;13.378;2022-09-09T13:05:06;52436.09;;;-146.10;41.63
12763;BME280;6445;52.490;13.378;2022-09-09T13:07:32;52422.09;;;-146.10;40.97
12763;BME280;6445;52.490;13.378;2022-09-09T13:09:57;52398.09;;;-146.10;41.12
12763;BME280;6445;52.490;13.378;2022-09-09T13:12:22;52408.09;;;-146.10;41.14
12763;BME280;6445;52.490;13.378;2022-09-09T13:14:51;52426.09;;;-146.10;40.25
12763;BME280;6445;52.490;13.378;2022-09-09T13:17:22;52420.09;;;-146.10;40.65
12763;BME280;6445;52.490;13.378;2022-09-09T13:19:48;52430.09;;;-146.10;41.20
12763;BME280;6445;52.490;13.378;2022-09-09T13:22:26;52400.09;;;-146.10;42.03
12763;BME280;6445;52.490;13.378;2022-09-09T13:24:59;52414.09;;;-146.10;41.82
12763;BME280;6445;52.490;13.378;2022-09-09T13:27:35;52422.09;;;-146.10;41.79
12763;BME280;6445;52.490;13.378;2022-09-09T13:30:21;52422.09;;;-146.10;41.84
12763;BME280;6445;52.490;13.378;2022-09-09T13:32:48;52434.09;;;-146.10;41.25
12763;BME280;6445;52.490;13.378;2022-09-09T13:35:24;52488.13;;;-146.10;40.94
12763;BME280;6445;52.490;13.378;2022-09-09T13:37:50;52510.13;;;-146.10;40.12
12763;BME280;6445;52.490;13.378;2022-09-09T13:40:20;52512.13;;;-146.10;39.13
12763;BME280;6445;52.490;13.378;2022-09-09T13:42:47;52554.16;;;-146.10;38.54
12763;BME280;6445;52.490;13.378;2022-09-09T13:45:18;52526.13;;;-146.10;38.91
12763;BME280;6445;52.490;13.378;2022-09-09T13:47:46;52518.13;;;-146.10;39.21
12763;BME280;6445;52.490;13.378;2022-09-09T13:50:20;52500.13;;;-146.10;39.21
12763;BME280;6445;52.490;13.378;2022-09-09T13:52:47;52506.13;;;-146.10;39.04